createdAt,value
2019-03-08T15:34:47.381Z,97213.52
2019-03-08T15:35:44.769Z,97222.22
2019-03-08T15:36:43.452Z,97214.73
2019-03-08T15:38:27.214Z,97216.70
2019-03-08T15:39:27.385Z,97219.66
2019-03-08T15:40:19.440Z,97234.19
2019-03-08T15:41:14.627Z,97229.26
2019-03-08T15:42:18.585Z,97229.14
2019-03-08T15:43:39.216Z,97230.00
2019-03-08T15:45:46.852Z,97224.02
2019-03-08T15:47:13.663Z,97237.64
2019-03-08T15:48:30.014Z,97237.92
2019-03-08T15:49:36.526Z,97235.87
2019-03-08T15:50:46.647Z,97243.30
2019-03-08T15:51:55.225Z,97234.78
2019-03-08T15:52:55.444Z,97243.22
2019-03-08T15:54:14.390Z,97251.97
2019-03-08T15:55:06.825Z,97238.08
2019-03-08T15:56:02.163Z,97257.84
2019-03-08T15:56:55.727Z,97249.12
2019-03-08T15:57:47.678Z,97248.31
2019-03-08T15:58:40.053Z,97248.31
2019-03-08T15:59:35.515Z,97245.98
2019-03-08T16:00:29.886Z,97254.22
2019-03-08T16:01:21.304Z,97254.73
2019-03-08T16:02:11.963Z,97257.09
2019-03-08T16:03:03.434Z,97255.59
2019-03-08T16:03:54.606Z,97246.74
2019-03-08T16:04:50.128Z,97258.03
2019-03-08T16:05:41.004Z,97252.90
2019-03-08T16:06:32.770Z,97261.77
2019-03-08T16:07:26.293Z,97279.70
2019-03-08T16:08:16.443Z,97269.86
2019-03-08T16:09:11.646Z,97271.23
2019-03-08T16:10:02.964Z,97262.77
2019-03-08T16:10:54.114Z,97272.92
2019-03-08T16:11:46.259Z,97268.67
2019-03-08T16:12:37.351Z,97272.65
2019-03-08T16:13:28.134Z,97268.86
2019-03-08T16:14:38.806Z,97276.94
2019-03-08T16:15:32.295Z,97268.47
2019-03-08T16:16:35.222Z,97277.05
2019-03-08T16:21:39.263Z,97284.93
2019-03-08T16:22:39.924Z,97292.17
2019-03-08T16:23:35.233Z,97285.67
2019-03-08T16:24:46.081Z,97285.84
2019-03-08T16:25:41.192Z,97296.80
2019-03-08T16:26:35.917Z,97291.33
2019-03-08T16:27:28.354Z,97304.08
2019-03-08T16:28:19.424Z,97295.12
2019-03-08T16:29:10.677Z,97310.44
2019-03-08T16:30:08.442Z,97300.84
2019-03-08T16:30:57.777Z,97294.09
2019-03-08T16:31:56.961Z,97305.38
2019-03-08T16:32:58.802Z,97302.17
2019-03-08T16:33:52.528Z,97309.09
2019-03-08T16:34:44.156Z,97309.19
2019-03-08T16:36:04.965Z,97325.14
2019-03-08T16:37:15.025Z,97315.80
2019-03-08T16:38:28.293Z,97319.97
2019-03-08T16:39:36.299Z,97321.44
2019-03-08T16:41:04.352Z,97329.17
2019-03-08T16:42:14.144Z,97328.95
2019-03-08T16:43:15.618Z,97324.66
2019-03-08T16:44:24.270Z,97319.74
2019-03-08T16:46:01.856Z,97324.76
2019-03-08T16:47:22.189Z,97325.88
2019-03-08T16:48:20.755Z,97333.85
2019-03-08T16:49:21.025Z,97327.77
2019-03-08T16:50:22.280Z,97325.02
2019-03-08T16:51:18.976Z,97328.63
2019-03-08T16:52:45.290Z,97330.09
2019-03-08T16:54:05.026Z,97331.04
2019-03-08T16:55:12.501Z,97346.27
2019-03-08T16:56:12.617Z,97350.99
2019-03-08T16:57:15.611Z,97376.70
2019-03-08T16:58:23.255Z,97353.33
2019-03-08T16:59:36.196Z,97348.50
2019-03-08T17:00:41.939Z,97357.28
2019-03-08T17:01:57.765Z,97350.03
2019-03-08T17:02:55.272Z,97359.36
2019-03-08T17:03:57.399Z,97347.70
2019-03-08T17:05:02.521Z,97354.05
2019-03-08T17:06:29.397Z,97352.36
2019-03-08T17:07:25.520Z,97356.31
2019-03-08T17:08:39.086Z,97354.94
2019-03-08T17:09:47.536Z,97354.22
2019-03-08T17:10:49.100Z,97361.69
2019-03-08T17:12:01.743Z,97347.53
2019-03-08T17:13:20.966Z,97356.22
2019-03-08T17:14:27.422Z,97367.56
2019-03-08T17:15:40.231Z,97365.73
2019-03-08T17:16:55.460Z,97369.24
2019-03-08T17:18:15.259Z,97372.63
2019-03-08T17:19:12.869Z,97363.36
2019-03-08T17:20:27.661Z,97377.85
2019-03-08T17:21:31.671Z,97368.83
2019-03-08T17:22:35.025Z,97366.49
2019-03-08T17:23:56.881Z,97383.16
2019-03-08T17:25:25.049Z,97379.15
2019-03-08T17:26:33.083Z,97389.03
2019-03-08T17:27:39.998Z,97386.70
2019-03-08T17:28:44.600Z,97385.38
2019-03-08T17:30:01.629Z,97397.22
2019-03-08T17:31:11.269Z,97385.22
2019-03-08T17:32:20.145Z,97391.39
2019-03-08T17:33:47.412Z,97391.23
2019-03-08T17:34:58.843Z,97390.16
2019-03-08T17:36:21.300Z,97400.64
2019-03-08T17:37:26.107Z,97392.73
2019-03-08T17:38:23.636Z,97404.07
2019-03-08T17:39:36.535Z,97403.66
2019-03-08T17:40:46.504Z,97407.28
2019-03-08T17:41:52.123Z,97397.89
2019-03-08T17:44:16.941Z,97399.27
2019-03-08T17:45:36.613Z,97400.77
2019-03-08T17:46:49.976Z,97403.03
2019-03-08T17:48:00.716Z,97407.18
2019-03-08T17:49:13.213Z,97393.98
2019-03-08T17:50:26.363Z,97402.31
2019-03-08T17:51:41.393Z,97407.66
2019-03-08T17:52:54.989Z,97409.16
2019-03-08T17:54:04.473Z,97407.19
2019-03-08T17:55:18.448Z,97405.52
2019-03-08T17:56:29.412Z,97410.00
2019-03-08T17:57:38.744Z,97405.47
2019-03-08T17:58:51.405Z,97401.49
2019-03-08T17:59:51.443Z,97399.31
2019-03-08T18:01:07.445Z,97399.19
2019-03-08T18:02:24.734Z,97388.64
2019-03-08T18:03:36.937Z,97394.78
2019-03-08T18:04:47.520Z,97393.53
2019-03-08T18:05:56.903Z,97397.45
2019-03-08T18:07:11.886Z,97396.20
2019-03-08T18:08:15.005Z,97395.73
2019-03-08T18:09:14.712Z,97402.99
2019-03-08T18:10:25.551Z,97400.31
2019-03-08T18:11:30.579Z,97401.19
2019-03-08T18:12:57.375Z,97389.55
2019-03-08T18:14:10.819Z,97398.37
2019-03-08T18:15:20.028Z,97400.96
2019-03-08T18:16:20.255Z,97404.31
2019-03-08T18:17:23.783Z,97395.98
2019-03-08T18:18:31.373Z,97391.12
2019-03-08T18:19:41.462Z,97396.47
2019-03-08T18:21:01.114Z,97395.22
2019-03-08T18:22:09.157Z,97395.07
2019-03-08T18:23:11.511Z,97398.17
2019-03-08T18:24:23.778Z,97400.82
2019-03-08T18:25:31.222Z,97406.09
2019-03-08T18:26:30.456Z,97417.11
2019-03-08T18:27:38.971Z,97421.59
2019-03-08T18:28:51.051Z,97418.64
2019-03-08T18:30:11.378Z,97425.11
2019-03-08T18:31:25.346Z,97428.49
2019-03-08T18:32:35.655Z,97432.77
2019-03-08T18:33:46.708Z,97418.14
2019-03-08T18:34:45.503Z,97419.88
2019-03-08T18:35:44.488Z,97421.05
2019-03-08T18:36:57.860Z,97427.66
2019-03-08T18:38:15.905Z,97420.39
2019-03-08T18:39:37.078Z,97426.19
2019-03-08T18:40:46.231Z,97423.13
2019-03-08T18:42:02.290Z,97421.81
2019-03-08T18:43:13.830Z,97434.72
2019-03-08T18:44:21.328Z,97425.87
2019-03-08T18:45:43.798Z,97433.37
2019-03-08T18:47:01.272Z,97427.40
2019-03-08T18:48:00.942Z,97433.05
2019-03-08T18:49:21.493Z,97432.92
2019-03-08T18:50:32.233Z,97431.36
2019-03-08T18:51:41.384Z,97437.28
2019-03-08T18:53:11.885Z,97443.90
2019-03-08T18:54:22.701Z,97450.23
2019-03-08T18:55:31.600Z,97451.72
2019-03-08T18:56:40.645Z,97451.59
2019-03-08T18:57:51.161Z,97455.39
2019-03-08T18:58:51.601Z,97454.09
2019-03-08T19:00:12.416Z,97445.14
2019-03-08T19:01:20.896Z,97456.41
2019-03-08T19:02:34.457Z,97452.39
2019-03-08T19:03:50.155Z,97454.62
2019-03-08T19:05:06.053Z,97452.23
2019-03-08T19:06:26.760Z,97456.16
2019-03-08T19:07:30.983Z,97461.11
2019-03-08T19:08:50.008Z,97456.54
2019-03-08T19:10:03.231Z,97462.35
2019-03-08T19:11:10.824Z,97466.77
2019-03-08T19:12:24.504Z,97466.28
2019-03-08T19:13:46.425Z,97461.38
2019-03-08T19:14:57.331Z,97470.83
2019-03-08T19:16:01.246Z,97472.73
2019-03-08T19:17:02.854Z,97475.51
2019-03-08T19:18:15.299Z,97472.95
2019-03-08T19:19:16.890Z,97474.41
2019-03-08T19:20:33.901Z,97473.70
2019-03-08T19:21:53.356Z,97482.98
2019-03-08T19:23:06.477Z,97478.41
2019-03-08T19:24:20.874Z,97474.92
2019-03-08T19:25:23.230Z,97481.75
2019-03-08T19:26:34.003Z,97475.23
2019-03-08T19:27:44.654Z,97475.81
2019-03-08T19:28:49.170Z,97480.44
2019-03-08T19:30:03.901Z,97481.84
2019-03-08T19:31:10.684Z,97482.16
2019-03-08T19:32:29.051Z,97485.22
2019-03-08T19:33:31.459Z,97480.88
2019-03-08T19:34:41.740Z,97491.20
2019-03-08T19:35:49.146Z,97496.43
2019-03-08T19:36:49.580Z,97490.53
2019-03-08T19:38:03.231Z,97502.50
2019-03-08T19:39:20.858Z,97494.52
2019-03-08T19:40:40.201Z,97495.06
2019-03-08T19:41:38.161Z,97490.69
2019-03-08T19:42:47.289Z,97502.52
2019-03-08T19:43:57.902Z,97497.70
2019-03-08T19:44:59.929Z,97504.27
2019-03-08T19:46:19.045Z,97502.83
2019-03-08T19:47:28.661Z,97509.34
2019-03-08T19:48:42.294Z,97506.91
2019-03-08T19:49:51.142Z,97507.95
2019-03-08T19:51:08.361Z,97514.89
2019-03-08T19:52:21.472Z,97512.06
2019-03-08T19:53:34.623Z,97512.91
2019-03-08T19:54:50.924Z,97508.09
2019-03-08T19:56:02.877Z,97505.92
2019-03-08T19:57:11.975Z,97504.02
2019-03-08T19:58:13.522Z,97512.17
2019-03-08T19:59:29.376Z,97509.73
2019-03-08T20:00:43.512Z,97504.84
2019-03-08T20:01:52.102Z,97513.27
2019-03-08T20:02:57.694Z,97521.44
2019-03-08T20:04:11.219Z,97514.72
2019-03-08T20:05:26.688Z,97514.98
2019-03-08T20:06:35.333Z,97513.66
2019-03-08T20:07:52.411Z,97517.25
2019-03-08T20:08:53.381Z,97525.66
2019-03-08T20:09:57.822Z,97521.08
2019-03-08T20:11:20.311Z,97530.34
2019-03-08T20:12:28.989Z,97526.27
2019-03-08T20:13:38.685Z,97521.69
2019-03-08T20:15:03.912Z,97530.36
2019-03-08T20:16:13.695Z,97524.42
2019-03-08T20:17:26.735Z,97527.21
2019-03-08T20:18:35.150Z,97526.13
2019-03-08T20:19:41.849Z,97531.50
2019-03-08T20:20:51.797Z,97537.73
2019-03-08T20:21:49.341Z,97535.33
2019-03-08T20:22:49.636Z,97538.87
2019-03-08T20:24:03.414Z,97547.03
2019-03-08T20:25:11.788Z,97540.25
2019-03-08T20:26:26.333Z,97551.37
2019-03-08T20:27:26.794Z,97552.50
2019-03-08T20:28:31.894Z,97546.53
2019-03-08T20:29:48.651Z,97541.94
2019-03-08T20:30:58.664Z,97544.13
2019-03-08T20:32:10.361Z,97546.04
2019-03-08T20:33:10.684Z,97548.48
2019-03-08T20:34:34.011Z,97544.98
2019-03-08T20:35:44.326Z,97543.08
2019-03-08T20:36:45.947Z,97551.01
2019-03-08T20:37:44.723Z,97542.89
2019-03-08T20:38:52.069Z,97551.27
2019-03-08T20:40:07.173Z,97549.37
2019-03-08T20:41:19.001Z,97547.20
2019-03-08T20:42:36.422Z,97546.95
2019-03-08T20:43:49.582Z,97552.91
2019-03-08T20:44:47.160Z,97552.38
2019-03-08T20:45:52.142Z,97555.37
2019-03-08T20:47:05.295Z,97555.66
2019-03-08T20:47:56.227Z,97561.89
2019-03-08T20:48:48.454Z,97568.42
2019-03-08T20:49:38.859Z,97562.18
2019-03-08T20:50:31.711Z,97563.55
2019-03-08T20:51:22.911Z,97568.70
2019-03-08T20:52:14.042Z,97566.24
2019-03-08T20:53:06.086Z,97566.80
2019-03-08T20:53:56.792Z,97570.86
2019-03-08T20:54:47.535Z,97579.53
2019-03-08T20:55:38.807Z,97574.39
2019-03-08T20:56:29.990Z,97577.63
2019-03-08T20:57:22.090Z,97575.74
2019-03-08T20:58:13.372Z,97576.54
2019-03-08T20:59:06.592Z,97576.02
2019-03-08T20:59:58.244Z,97577.89
2019-03-08T21:00:49.649Z,97578.42
2019-03-08T21:01:43.363Z,97588.73
2019-03-08T21:02:37.000Z,97588.70
2019-03-08T21:03:28.093Z,97587.36
2019-03-08T21:04:19.032Z,97585.20
2019-03-08T21:05:10.074Z,97589.25
2019-03-08T21:06:01.513Z,97596.02
2019-03-08T21:06:53.391Z,97596.56
2019-03-08T21:07:44.492Z,97602.77
2019-03-08T21:08:36.831Z,97601.17
2019-03-08T21:09:29.199Z,97595.75
2019-03-08T21:10:20.089Z,97599.26
2019-03-08T21:11:11.229Z,97606.02
2019-03-08T21:12:02.644Z,97600.06
2019-03-08T21:12:55.411Z,97602.50
2019-03-08T21:13:46.626Z,97604.13
2019-03-08T21:14:37.708Z,97601.15
2019-03-08T21:15:29.242Z,97606.83
2019-03-08T21:16:20.395Z,97603.58
2019-03-08T21:17:12.889Z,97606.82
2019-03-08T21:18:03.728Z,97607.06
2019-03-08T21:18:54.246Z,97608.43
2019-03-08T21:19:45.553Z,97614.38
2019-03-08T21:20:36.681Z,97610.58
2019-03-08T21:21:28.439Z,97608.41
2019-03-08T21:22:19.257Z,97606.25
2019-03-08T21:23:10.583Z,97602.45
2019-03-08T21:24:02.957Z,97606.23
2019-03-08T21:24:55.751Z,97610.82
2019-03-08T21:25:46.664Z,97607.87
2019-03-08T21:26:39.398Z,97613.00
2019-03-08T21:27:31.075Z,97611.36
2019-03-08T21:28:22.218Z,97612.18
2019-03-08T21:29:14.173Z,97611.66
2019-03-08T21:30:06.133Z,97608.94
2019-03-08T21:30:56.721Z,97619.50
2019-03-08T21:31:49.149Z,97617.33
2019-03-08T21:32:40.710Z,97620.86
2019-03-08T21:33:33.014Z,97622.42
2019-03-08T21:34:24.826Z,97616.20
2019-03-08T21:35:15.597Z,97617.80
2019-03-08T21:36:07.407Z,97624.29
2019-03-08T21:37:01.400Z,97620.23
2019-03-08T21:37:52.508Z,97624.80
2019-03-08T21:38:43.711Z,97623.45
2019-03-08T21:39:35.292Z,97618.30
2019-03-08T21:40:26.449Z,97631.26
2019-03-08T21:41:21.004Z,97618.00
2019-03-08T21:42:12.417Z,97618.79
2019-03-08T21:43:03.110Z,97625.52
2019-03-08T21:43:55.566Z,97622.25
2019-03-08T21:44:47.298Z,97628.48
2019-03-08T21:45:39.804Z,97628.20
2019-03-08T21:46:31.435Z,97626.53
2019-03-08T21:47:22.969Z,97628.17
2019-03-08T21:48:13.687Z,97626.03
2019-03-08T21:49:04.707Z,97629.27
2019-03-08T21:49:56.367Z,97631.69
2019-03-08T21:50:48.755Z,97633.04
2019-03-08T21:51:39.984Z,97627.85
2019-03-08T21:52:31.459Z,97636.77
2019-03-08T21:53:23.349Z,97636.20
2019-03-08T21:54:14.092Z,97638.63
2019-03-08T21:55:04.560Z,97638.37
2019-03-08T21:55:55.152Z,97631.34
2019-03-08T21:56:47.081Z,97630.27
2019-03-08T21:57:37.786Z,97626.75
2019-03-08T21:58:29.407Z,97630.23
2019-03-08T21:59:20.539Z,97627.82
2019-03-08T22:00:17.594Z,97625.37
2019-03-08T22:01:08.886Z,97628.60
2019-03-08T22:02:01.350Z,97632.66
2019-03-08T22:02:54.014Z,97633.19
2019-03-08T22:03:49.189Z,97631.55
2019-03-08T22:04:46.905Z,97643.14
2019-03-08T22:05:39.552Z,97639.63
2019-03-08T22:06:30.488Z,97630.42
2019-03-08T22:07:21.975Z,97636.63
2019-03-08T22:08:17.200Z,97642.03
2019-03-08T22:09:13.702Z,97636.92
2019-03-08T22:10:31.233Z,97642.28
2019-03-08T22:11:30.335Z,97644.98
2019-03-08T22:12:22.233Z,97645.87
2019-03-08T22:13:14.794Z,97645.95
2019-03-08T22:14:05.863Z,97649.19
2019-03-08T22:14:56.916Z,97649.22
2019-03-08T22:15:47.974Z,97645.70
2019-03-08T22:16:38.658Z,97659.52
2019-03-08T22:17:29.430Z,97656.83
2019-03-08T22:18:19.578Z,97657.36
2019-03-08T22:19:11.718Z,97645.77
2019-03-08T22:20:03.004Z,97653.08
2019-03-08T22:20:53.704Z,97653.93
2019-03-08T22:21:43.969Z,97652.89
2019-03-08T22:22:37.351Z,97656.94
2019-03-08T22:23:28.574Z,97655.05
2019-03-08T22:24:22.175Z,97658.83
2019-03-08T22:25:12.724Z,97658.58
2019-03-08T22:26:03.974Z,97660.74
2019-03-08T22:26:54.131Z,97649.11
2019-03-08T22:27:44.655Z,97655.08
2019-03-08T22:28:35.869Z,97657.50
2019-03-08T22:29:27.931Z,97658.58
2019-03-08T22:30:17.907Z,97653.98
2019-03-08T22:31:08.969Z,97651.81
2019-03-08T22:32:00.039Z,97652.09
2019-03-08T22:32:50.841Z,97650.72
2019-03-08T22:33:41.231Z,97651.56
2019-03-08T22:34:32.208Z,97647.78
2019-03-08T22:35:22.571Z,97655.89
2019-03-08T22:36:13.238Z,97653.47
2019-03-08T22:37:04.040Z,97642.14
2019-03-08T22:37:56.027Z,97650.28
2019-03-08T22:38:46.952Z,97651.12
2019-03-08T22:39:37.689Z,97650.32
2019-03-08T22:40:29.561Z,97647.89
2019-03-08T22:41:21.788Z,97643.30
2019-03-08T22:42:13.145Z,97636.81
2019-03-08T22:43:03.391Z,97643.28
2019-03-08T22:43:55.937Z,97637.61
2019-03-08T22:44:47.746Z,97635.45
2019-03-08T22:45:39.232Z,97638.13
2019-03-08T22:46:29.286Z,97642.98
2019-03-08T22:47:20.787Z,97638.37
2019-03-08T22:48:11.385Z,97644.06
2019-03-08T22:49:01.648Z,97642.41
2019-03-08T22:49:52.251Z,97644.30
2019-03-08T22:50:42.461Z,97647.78
2019-03-08T22:51:33.070Z,97653.45
2019-03-08T22:52:24.471Z,97648.33
2019-03-08T22:53:15.911Z,97646.44
2019-03-08T22:54:06.458Z,97647.53
2019-03-08T22:54:56.809Z,97648.89
2019-03-08T22:55:49.294Z,97648.86
2019-03-08T22:56:40.486Z,97651.84
2019-03-08T22:57:32.184Z,97643.75
2019-03-08T22:58:24.387Z,97644.03
2019-03-08T22:59:15.231Z,97641.33
2019-03-08T23:00:16.398Z,97649.19
2019-03-08T23:01:09.631Z,97653.52
2019-03-08T23:02:07.867Z,97648.95
2019-03-08T23:02:58.779Z,97647.34
2019-03-08T23:03:49.292Z,97648.70
2019-03-08T23:04:40.173Z,97648.70
2019-03-08T23:05:30.551Z,97649.77
2019-03-08T23:06:20.752Z,97645.17
2019-03-08T23:07:11.269Z,97644.89
2019-03-08T23:08:03.347Z,97647.31
2019-03-08T23:08:54.440Z,97642.19
2019-03-08T23:09:46.445Z,97645.69
2019-03-08T23:10:37.894Z,97642.45
2019-03-08T23:11:28.606Z,97641.09
2019-03-08T23:12:19.730Z,97643.52
2019-03-08T23:13:11.933Z,97633.23
2019-03-08T23:14:02.273Z,97638.11
2019-03-08T23:14:54.083Z,97637.83
2019-03-08T23:15:44.961Z,97631.89
2019-03-08T23:16:35.580Z,97634.59
2019-03-08T23:17:26.815Z,97634.59
2019-03-08T23:18:18.188Z,97628.06
2019-03-08T23:19:09.555Z,97637.28
2019-03-08T23:20:00.018Z,97641.84
2019-03-08T23:20:50.681Z,97631.84
2019-03-08T23:21:41.943Z,97639.67
2019-03-08T23:22:32.325Z,97638.86
2019-03-08T23:23:23.314Z,97624.50
2019-03-08T23:24:14.555Z,97634.50
2019-03-08T23:25:05.245Z,97633.43
2019-03-08T23:25:56.411Z,97636.95
2019-03-08T23:26:53.472Z,97636.11
2019-03-08T23:27:48.439Z,97633.38
2019-03-08T23:28:56.083Z,97635.52
2019-03-08T23:29:58.985Z,97633.06
2019-03-08T23:30:50.981Z,97634.13
2019-03-08T23:32:10.319Z,97631.16
2019-03-08T23:33:00.704Z,97630.59
2019-03-08T23:33:52.540Z,97620.03
2019-03-08T23:34:43.090Z,97627.85
2019-03-08T23:35:34.038Z,97632.69
2019-03-08T23:36:25.117Z,97624.08
2019-03-08T23:37:15.669Z,97624.90
2019-03-08T23:38:07.333Z,97629.98
2019-03-08T23:38:58.115Z,97614.31
2019-03-08T23:39:48.587Z,97622.42
2019-03-08T23:40:39.585Z,97614.31
2019-03-08T23:41:31.298Z,97616.73
2019-03-08T23:42:21.526Z,97610.51
2019-03-08T23:43:12.388Z,97608.84
2019-03-08T23:44:03.442Z,97607.21
2019-03-08T23:44:54.278Z,97602.09
2019-03-08T23:45:45.578Z,97609.63
2019-03-08T23:46:35.879Z,97605.86
2019-03-08T23:47:28.332Z,97604.76
2019-03-08T23:48:18.932Z,97605.30
2019-03-08T23:49:09.409Z,97604.19
2019-03-08T23:50:00.040Z,97602.02
2019-03-08T23:50:50.969Z,97607.95
2019-03-08T23:51:41.789Z,97602.80
2019-03-08T23:52:33.093Z,97608.42
2019-03-08T23:53:23.297Z,97603.80
2019-03-08T23:54:14.833Z,97609.48
2019-03-08T23:55:06.300Z,97610.55
2019-03-08T23:55:57.781Z,97608.91
2019-03-08T23:56:48.715Z,97609.68
2019-03-08T23:57:40.254Z,97615.33
2019-03-08T23:58:31.077Z,97613.98
2019-03-08T23:59:22.299Z,97606.70
